sensor_id;sensor_type;location;lat;lon;timestamp;P1;durP1;ratioP1;P2;durP2;ratioP2
61785;SDS011;47692;53.714;11.372;2022-07-22T00:01:44;18.88;;;9.48;;
61785;SDS011;47692;53.714;11.372;2022-07-22T00:04:09;13.55;;;9.15;;
61785;SDS011;47692;53.714;11.372;2022-07-22T00:06:34;14.20;;;8.95;;
61785;SDS011;47692;53.714;11.372;2022-07-22T00:09:00;16.58;;;8.93;;
61785;SDS011;47692;53.714;11.372;2022-07-22T00:11:25;13.30;;;8.00;;
61785;SDS011;47692;53.714;11.372;2022-07-22T00:13:50;15.07;;;9.50;;
61785;SDS011;47692;53.714;11.372;2022-07-22T00:16:16;15.05;;;8.73;;
61785;SDS011;47692;53.714;11.372;2022-07-22T00:18:41;15.27;;;9.65;;
61785;SDS011;47692;53.714;11.372;2022-07-22T00:21:07;14.90;;;9.05;;
61785;SDS011;47692;53.714;11.372;2022-07-22T00:23:32;14.73;;;9.18;;
61785;SDS011;47692;53.714;11.372;2022-07-22T00:25:57;15.13;;;8.93;;
61785;SDS011;47692;53.714;11.372;2022-07-22T00:28:23;15.48;;;9.27;;
61785;SDS011;47692;53.714;11.372;2022-07-22T00:30:48;15.70;;;9.45;;
61785;SDS011;47692;53.714;11.372;2022-07-22T00:33:14;15.00;;;9.80;;
61785;SDS011;47692;53.714;11.372;2022-07-22T00:35:39;14.18;;;9.10;;
61785;SDS011;47692;53.714;11.372;2022-07-22T00:38:04;15.70;;;9.88;;
61785;SDS011;47692;53.714;11.372;2022-07-22T00:40:30;15.00;;;9.18;;
61785;SDS011;47692;53.714;11.372;2022-07-22T00:42:55;14.93;;;9.77;;
61785;SDS011;47692;53.714;11.372;2022-07-22T00:45:20;13.30;;;9.40;;
61785;SDS011;47692;53.714;11.372;2022-07-22T00:47:46;15.50;;;9.45;;
61785;SDS011;47692;53.714;11.372;2022-07-22T00:50:11;16.15;;;9.30;;
61785;SDS011;47692;53.714;11.372;2022-07-22T00:52:37;14.57;;;10.45;;
61785;SDS011;47692;53.714;11.372;2022-07-22T00:55:03;16.60;;;10.35;;
61785;SDS011;47692;53.714;11.372;2022-07-22T00:57:30;17.10;;;10.50;;
61785;SDS011;47692;53.714;11.372;2022-07-22T00:59:55;18.02;;;10.82;;
61785;SDS011;47692;53.714;11.372;2022-07-22T01:02:21;18.95;;;10.95;;
61785;SDS011;47692;53.714;11.372;2022-07-22T01:04:46;16.42;;;10.55;;
61785;SDS011;47692;53.714;11.372;2022-07-22T01:07:12;18.63;;;11.30;;
61785;SDS011;47692;53.714;11.372;2022-07-22T01:09:37;17.45;;;11.02;;
61785;SDS011;47692;53.714;11.372;2022-07-22T01:12:02;20.08;;;11.07;;
61785;SDS011;47692;53.714;11.372;2022-07-22T01:14:28;17.35;;;10.90;;
61785;SDS011;47692;53.714;11.372;2022-07-22T01:16:54;18.98;;;10.57;;
61785;SDS011;47692;53.714;11.372;2022-07-22T01:19:19;18.42;;;11.95;;
61785;SDS011;47692;53.714;11.372;2022-07-22T01:21:45;20.83;;;11.50;;
61785;SDS011;47692;53.714;11.372;2022-07-22T01:24:10;21.65;;;11.65;;
61785;SDS011;47692;53.714;11.372;2022-07-22T01:26:36;18.40;;;12.07;;
61785;SDS011;47692;53.714;11.372;2022-07-22T01:29:01;20.52;;;12.25;;
61785;SDS011;47692;53.714;11.372;2022-07-22T01:31:28;19.55;;;11.77;;
61785;SDS011;47692;53.714;11.372;2022-07-22T01:33:53;21.08;;;11.27;;
61785;SDS011;47692;53.714;11.372;2022-07-22T01:36:19;19.90;;;12.25;;
61785;SDS011;47692;53.714;11.372;2022-07-22T01:38:44;22.17;;;12.57;;
61785;SDS011;47692;53.714;11.372;2022-07-22T01:41:10;19.50;;;12.00;;
61785;SDS011;47692;53.714;11.372;2022-07-22T01:43:36;21.92;;;12.77;;
61785;SDS011;47692;53.714;11.372;2022-07-22T01:46:01;23.20;;;12.38;;
61785;SDS011;47692;53.714;11.372;2022-07-22T01:48:27;22.02;;;12.48;;
61785;SDS011;47692;53.714;11.372;2022-07-22T01:50:53;22.50;;;12.77;;
61785;SDS011;47692;53.714;11.372;2022-07-22T01:53:18;27.08;;;14.68;;
61785;SDS011;47692;53.714;11.372;2022-07-22T01:55:44;20.05;;;11.98;;
61785;SDS011;47692;53.714;11.372;2022-07-22T01:58:09;19.70;;;11.68;;
61785;SDS011;47692;53.714;11.372;2022-07-22T02:00:35;20.27;;;12.32;;
61785;SDS011;47692;53.714;11.372;2022-07-22T02:03:01;22.15;;;12.80;;
61785;SDS011;47692;53.714;11.372;2022-07-22T02:05:26;28.20;;;14.55;;
61785;SDS011;47692;53.714;11.372;2022-07-22T02:07:52;24.75;;;13.65;;
61785;SDS011;47692;53.714;11.372;2022-07-22T02:10:17;25.67;;;14.05;;
61785;SDS011;47692;53.714;11.372;2022-07-22T02:12:43;23.92;;;13.25;;
61785;SDS011;47692;53.714;11.372;2022-07-22T02:15:08;24.65;;;13.07;;
61785;SDS011;47692;53.714;11.372;2022-07-22T02:17:35;24.10;;;12.18;;
61785;SDS011;47692;53.714;11.372;2022-07-22T02:20:00;22.63;;;13.52;;
61785;SDS011;47692;53.714;11.372;2022-07-22T02:22:26;24.58;;;13.93;;
61785;SDS011;47692;53.714;11.372;2022-07-22T02:24:51;23.50;;;14.73;;
61785;SDS011;47692;53.714;11.372;2022-07-22T02:27:17;24.95;;;13.23;;
61785;SDS011;47692;53.714;11.372;2022-07-22T02:29:42;25.02;;;14.25;;
61785;SDS011;47692;53.714;11.372;2022-07-22T02:32:07;29.42;;;14.40;;
61785;SDS011;47692;53.714;11.372;2022-07-22T02:34:33;25.50;;;15.63;;
61785;SDS011;47692;53.714;11.372;2022-07-22T02:36:58;27.25;;;15.50;;
61785;SDS011;47692;53.714;11.372;2022-07-22T02:39:23;26.55;;;14.80;;
61785;SDS011;47692;53.714;11.372;2022-07-22T02:41:49;27.48;;;14.30;;
61785;SDS011;47692;53.714;11.372;2022-07-22T02:44:14;30.83;;;15.70;;
61785;SDS011;47692;53.714;11.372;2022-07-22T02:46:40;24.67;;;15.13;;
61785;SDS011;47692;53.714;11.372;2022-07-22T02:49:05;25.05;;;14.05;;
61785;SDS011;47692;53.714;11.372;2022-07-22T02:51:30;28.58;;;14.75;;
61785;SDS011;47692;53.714;11.372;2022-07-22T02:53:56;28.95;;;15.88;;
61785;SDS011;47692;53.714;11.372;2022-07-22T02:56:21;23.23;;;14.30;;
61785;SDS011;47692;53.714;11.372;2022-07-22T02:58:47;25.02;;;14.20;;
61785;SDS011;47692;53.714;11.372;2022-07-22T03:01:16;27.23;;;14.75;;
61785;SDS011;47692;53.714;11.372;2022-07-22T03:03:42;25.67;;;15.10;;
61785;SDS011;47692;53.714;11.372;2022-07-22T03:06:07;27.05;;;14.50;;
61785;SDS011;47692;53.714;11.372;2022-07-22T03:08:33;29.10;;;14.82;;
61785;SDS011;47692;53.714;11.372;2022-07-22T03:10:58;28.08;;;14.48;;
61785;SDS011;47692;53.714;11.372;2022-07-22T03:13:23;26.38;;;14.85;;
61785;SDS011;47692;53.714;11.372;2022-07-22T03:15:49;28.80;;;15.77;;
61785;SDS011;47692;53.714;11.372;2022-07-22T03:18:14;28.80;;;15.80;;
61785;SDS011;47692;53.714;11.372;2022-07-22T03:20:39;25.85;;;14.80;;
61785;SDS011;47692;53.714;11.372;2022-07-22T03:23:05;26.45;;;14.65;;
61785;SDS011;47692;53.714;11.372;2022-07-22T03:25:30;24.55;;;15.15;;
61785;SDS011;47692;53.714;11.372;2022-07-22T03:27:57;31.85;;;17.83;;
61785;SDS011;47692;53.714;11.372;2022-07-22T03:30:23;34.53;;;16.90;;
61785;SDS011;47692;53.714;11.372;2022-07-22T03:32:48;30.15;;;16.75;;
61785;SDS011;47692;53.714;11.372;2022-07-22T03:35:15;34.28;;;16.10;;
61785;SDS011;47692;53.714;11.372;2022-07-22T03:37:40;29.27;;;16.10;;
61785;SDS011;47692;53.714;11.372;2022-07-22T03:40:06;29.13;;;15.45;;
61785;SDS011;47692;53.714;11.372;2022-07-22T03:42:32;27.30;;;15.98;;
61785;SDS011;47692;53.714;11.372;2022-07-22T03:44:58;32.03;;;16.88;;
61785;SDS011;47692;53.714;11.372;2022-07-22T03:47:23;33.67;;;17.45;;
61785;SDS011;47692;53.714;11.372;2022-07-22T03:49:49;36.42;;;16.52;;
61785;SDS011;47692;53.714;11.372;2022-07-22T03:52:15;19.95;;;10.75;;
61785;SDS011;47692;53.714;11.372;2022-07-22T03:54:41;18.17;;;8.38;;
61785;SDS011;47692;53.714;11.372;2022-07-22T03:57:07;7.03;;;3.90;;
61785;SDS011;47692;53.714;11.372;2022-07-22T03:59:32;4.85;;;2.10;;
61785;SDS011;47692;53.714;11.372;2022-07-22T04:01:58;2.85;;;1.25;;
61785;SDS011;47692;53.714;11.372;2022-07-22T04:04:24;3.10;;;1.10;;
61785;SDS011;47692;53.714;11.372;2022-07-22T04:06:49;3.15;;;1.40;;
61785;SDS011;47692;53.714;11.372;2022-07-22T04:09:16;2.80;;;1.15;;
61785;SDS011;47692;53.714;11.372;2022-07-22T04:11:42;3.53;;;1.40;;
61785;SDS011;47692;53.714;11.372;2022-07-22T04:14:07;8.30;;;1.75;;
61785;SDS011;47692;53.714;11.372;2022-07-22T04:16:32;3.25;;;1.52;;
61785;SDS011;47692;53.714;11.372;2022-07-22T04:18:59;2.10;;;1.40;;
61785;SDS011;47692;53.714;11.372;2022-07-22T04:21:25;3.35;;;1.60;;
61785;SDS011;47692;53.714;11.372;2022-07-22T04:23:51;3.47;;;1.17;;
61785;SDS011;47692;53.714;11.372;2022-07-22T04:26:16;3.70;;;1.30;;
61785;SDS011;47692;53.714;11.372;2022-07-22T04:28:41;1.75;;;0.98;;
61785;SDS011;47692;53.714;11.372;2022-07-22T04:31:07;2.67;;;1.10;;
61785;SDS011;47692;53.714;11.372;2022-07-22T04:33:32;3.53;;;1.45;;
61785;SDS011;47692;53.714;11.372;2022-07-22T04:35:57;4.88;;;1.52;;
61785;SDS011;47692;53.714;11.372;2022-07-22T04:38:24;2.35;;;1.60;;
61785;SDS011;47692;53.714;11.372;2022-07-22T04:40:49;3.88;;;1.60;;
61785;SDS011;47692;53.714;11.372;2022-07-22T04:43:14;4.65;;;1.88;;
61785;SDS011;47692;53.714;11.372;2022-07-22T04:45:40;4.20;;;1.98;;
61785;SDS011;47692;53.714;11.372;2022-07-22T04:48:05;8.10;;;2.15;;
61785;SDS011;47692;53.714;11.372;2022-07-22T04:50:30;6.35;;;2.40;;
61785;SDS011;47692;53.714;11.372;2022-07-22T04:52:56;14.05;;;2.63;;
61785;SDS011;47692;53.714;11.372;2022-07-22T04:55:21;8.65;;;2.50;;
61785;SDS011;47692;53.714;11.372;2022-07-22T04:57:46;6.65;;;2.33;;
61785;SDS011;47692;53.714;11.372;2022-07-22T05:00:13;4.97;;;1.90;;
61785;SDS011;47692;53.714;11.372;2022-07-22T05:02:40;4.78;;;2.38;;
61785;SDS011;47692;53.714;11.372;2022-07-22T05:05:06;5.30;;;2.40;;
61785;SDS011;47692;53.714;11.372;2022-07-22T05:07:32;6.18;;;2.70;;
61785;SDS011;47692;53.714;11.372;2022-07-22T05:09:57;4.65;;;2.33;;
61785;SDS011;47692;53.714;11.372;2022-07-22T05:12:22;4.80;;;2.70;;
61785;SDS011;47692;53.714;11.372;2022-07-22T05:14:48;6.63;;;1.95;;
61785;SDS011;47692;53.714;11.372;2022-07-22T05:17:13;7.85;;;2.15;;
61785;SDS011;47692;53.714;11.372;2022-07-22T05:19:39;4.85;;;2.10;;
61785;SDS011;47692;53.714;11.372;2022-07-22T05:22:05;8.02;;;2.15;;
61785;SDS011;47692;53.714;11.372;2022-07-22T05:24:32;5.85;;;2.45;;
61785;SDS011;47692;53.714;11.372;2022-07-22T05:26:57;6.93;;;2.30;;
61785;SDS011;47692;53.714;11.372;2022-07-22T05:29:22;7.00;;;3.03;;
61785;SDS011;47692;53.714;11.372;2022-07-22T05:31:48;7.00;;;2.33;;
61785;SDS011;47692;53.714;11.372;2022-07-22T05:34:13;4.22;;;1.75;;
61785;SDS011;47692;53.714;11.372;2022-07-22T05:36:38;6.47;;;1.88;;
61785;SDS011;47692;53.714;11.372;2022-07-22T05:39:04;4.93;;;2.22;;
61785;SDS011;47692;53.714;11.372;2022-07-22T05:41:29;9.18;;;2.70;;
61785;SDS011;47692;53.714;11.372;2022-07-22T05:43:55;4.13;;;1.90;;
61785;SDS011;47692;53.714;11.372;2022-07-22T05:46:20;8.20;;;2.22;;
61785;SDS011;47692;53.714;11.372;2022-07-22T05:48:45;7.90;;;2.35;;
61785;SDS011;47692;53.714;11.372;2022-07-22T05:51:14;7.15;;;2.33;;
61785;SDS011;47692;53.714;11.372;2022-07-22T05:53:40;9.32;;;2.72;;
61785;SDS011;47692;53.714;11.372;2022-07-22T05:56:06;5.60;;;2.22;;
61785;SDS011;47692;53.714;11.372;2022-07-22T05:58:33;8.80;;;3.08;;
61785;SDS011;47692;53.714;11.372;2022-07-22T06:00:58;6.20;;;2.40;;
61785;SDS011;47692;53.714;11.372;2022-07-22T06:03:24;8.05;;;2.22;;
61785;SDS011;47692;53.714;11.372;2022-07-22T06:05:49;5.97;;;2.20;;
61785;SDS011;47692;53.714;11.372;2022-07-22T06:08:14;6.43;;;2.10;;
61785;SDS011;47692;53.714;11.372;2022-07-22T06:10:40;10.57;;;2.45;;
61785;SDS011;47692;53.714;11.372;2022-07-22T06:13:05;4.22;;;2.33;;
61785;SDS011;47692;53.714;11.372;2022-07-22T06:15:31;11.23;;;2.70;;
61785;SDS011;47692;53.714;11.372;2022-07-22T06:17:56;4.95;;;2.05;;
61785;SDS011;47692;53.714;11.372;2022-07-22T06:20:22;7.30;;;2.40;;
61785;SDS011;47692;53.714;11.372;2022-07-22T06:22:47;9.63;;;2.72;;
61785;SDS011;47692;53.714;11.372;2022-07-22T06:25:12;6.13;;;2.20;;
61785;SDS011;47692;53.714;11.372;2022-07-22T06:27:38;5.25;;;2.40;;
61785;SDS011;47692;53.714;11.372;2022-07-22T06:30:03;6.43;;;2.63;;
61785;SDS011;47692;53.714;11.372;2022-07-22T06:32:29;8.75;;;2.47;;
61785;SDS011;47692;53.714;11.372;2022-07-22T06:34:54;6.97;;;2.80;;
61785;SDS011;47692;53.714;11.372;2022-07-22T06:37:20;10.02;;;3.17;;
61785;SDS011;47692;53.714;11.372;2022-07-22T06:39:45;14.15;;;2.85;;
61785;SDS011;47692;53.714;11.372;2022-07-22T06:42:13;6.03;;;2.72;;
61785;SDS011;47692;53.714;11.372;2022-07-22T06:44:38;6.85;;;2.95;;
61785;SDS011;47692;53.714;11.372;2022-07-22T06:47:04;10.55;;;3.15;;
61785;SDS011;47692;53.714;11.372;2022-07-22T06:49:29;6.05;;;3.28;;
61785;SDS011;47692;53.714;11.372;2022-07-22T06:51:54;7.13;;;3.22;;
61785;SDS011;47692;53.714;11.372;2022-07-22T06:54:20;11.75;;;3.35;;
61785;SDS011;47692;53.714;11.372;2022-07-22T06:56:45;9.30;;;3.75;;
61785;SDS011;47692;53.714;11.372;2022-07-22T06:59:10;9.55;;;3.67;;
61785;SDS011;47692;53.714;11.372;2022-07-22T07:01:36;8.80;;;3.63;;
61785;SDS011;47692;53.714;11.372;2022-07-22T07:04:01;9.40;;;3.85;;
61785;SDS011;47692;53.714;11.372;2022-07-22T07:06:27;15.43;;;3.67;;
61785;SDS011;47692;53.714;11.372;2022-07-22T07:08:52;10.95;;;3.78;;
61785;SDS011;47692;53.714;11.372;2022-07-22T07:11:18;12.05;;;4.18;;
61785;SDS011;47692;53.714;11.372;2022-07-22T07:13:43;8.43;;;3.88;;
61785;SDS011;47692;53.714;11.372;2022-07-22T07:16:09;11.02;;;4.20;;
61785;SDS011;47692;53.714;11.372;2022-07-22T07:18:35;9.70;;;4.65;;
61785;SDS011;47692;53.714;11.372;2022-07-22T07:21:00;13.38;;;3.78;;
61785;SDS011;47692;53.714;11.372;2022-07-22T07:23:26;11.10;;;4.25;;
61785;SDS011;47692;53.714;11.372;2022-07-22T07:25:51;9.70;;;4.22;;
61785;SDS011;47692;53.714;11.372;2022-07-22T07:28:17;12.57;;;4.15;;
61785;SDS011;47692;53.714;11.372;2022-07-22T07:30:42;9.27;;;3.53;;
61785;SDS011;47692;53.714;11.372;2022-07-22T07:33:08;9.23;;;3.75;;
61785;SDS011;47692;53.714;11.372;2022-07-22T07:35:33;19.98;;;3.67;;
61785;SDS011;47692;53.714;11.372;2022-07-22T07:37:59;8.73;;;3.15;;
61785;SDS011;47692;53.714;11.372;2022-07-22T07:40:25;11.32;;;3.38;;
61785;SDS011;47692;53.714;11.372;2022-07-22T07:42:50;10.02;;;3.10;;
61785;SDS011;47692;53.714;11.372;2022-07-22T07:45:16;20.00;;;4.60;;
61785;SDS011;47692;53.714;11.372;2022-07-22T07:47:42;12.40;;;4.20;;
61785;SDS011;47692;53.714;11.372;2022-07-22T07:50:07;13.45;;;2.97;;
61785;SDS011;47692;53.714;11.372;2022-07-22T07:52:40;12.93;;;3.85;;
61785;SDS011;47692;53.714;11.372;2022-07-22T07:55:07;11.52;;;3.08;;
61785;SDS011;47692;53.714;11.372;2022-07-22T07:57:34;10.07;;;2.67;;
61785;SDS011;47692;53.714;11.372;2022-07-22T08:00:00;8.65;;;2.92;;
61785;SDS011;47692;53.714;11.372;2022-07-22T08:02:28;13.52;;;2.90;;
61785;SDS011;47692;53.714;11.372;2022-07-22T08:04:53;14.73;;;3.42;;
61785;SDS011;47692;53.714;11.372;2022-07-22T08:07:19;10.95;;;2.70;;
61785;SDS011;47692;53.714;11.372;2022-07-22T08:09:44;8.82;;;2.80;;
61785;SDS011;47692;53.714;11.372;2022-07-22T08:12:10;9.00;;;2.90;;
61785;SDS011;47692;53.714;11.372;2022-07-22T08:14:35;11.95;;;2.92;;
61785;SDS011;47692;53.714;11.372;2022-07-22T08:17:01;11.30;;;3.58;;
61785;SDS011;47692;53.714;11.372;2022-07-22T08:19:26;15.80;;;5.05;;
61785;SDS011;47692;53.714;11.372;2022-07-22T08:21:52;15.63;;;3.17;;
61785;SDS011;47692;53.714;11.372;2022-07-22T08:24:17;10.77;;;3.13;;
61785;SDS011;47692;53.714;11.372;2022-07-22T08:26:42;10.27;;;2.60;;
61785;SDS011;47692;53.714;11.372;2022-07-22T08:29:08;7.63;;;2.33;;
61785;SDS011;47692;53.714;11.372;2022-07-22T08:31:35;9.52;;;2.63;;
61785;SDS011;47692;53.714;11.372;2022-07-22T08:34:02;14.05;;;2.70;;
61785;SDS011;47692;53.714;11.372;2022-07-22T08:36:28;10.80;;;2.42;;
61785;SDS011;47692;53.714;11.372;2022-07-22T08:38:54;5.53;;;1.98;;
61785;SDS011;47692;53.714;11.372;2022-07-22T08:41:20;9.02;;;1.92;;
61785;SDS011;47692;53.714;11.372;2022-07-22T08:43:48;13.98;;;2.90;;
61785;SDS011;47692;53.714;11.372;2022-07-22T08:46:14;12.48;;;2.50;;
61785;SDS011;47692;53.714;11.372;2022-07-22T08:48:39;11.20;;;3.78;;
61785;SDS011;47692;53.714;11.372;2022-07-22T08:51:05;10.40;;;3.13;;
61785;SDS011;47692;53.714;11.372;2022-07-22T08:53:30;6.57;;;2.53;;
61785;SDS011;47692;53.714;11.372;2022-07-22T08:55:56;9.98;;;2.58;;
61785;SDS011;47692;53.714;11.372;2022-07-22T08:58:23;6.53;;;2.20;;
61785;SDS011;47692;53.714;11.372;2022-07-22T09:01:03;7.25;;;2.20;;
61785;SDS011;47692;53.714;11.372;2022-07-22T09:03:53;6.93;;;2.58;;
61785;SDS011;47692;53.714;11.372;2022-07-22T09:06:21;9.98;;;2.85;;
61785;SDS011;47692;53.714;11.372;2022-07-22T09:08:58;8.10;;;2.70;;
61785;SDS011;47692;53.714;11.372;2022-07-22T09:11:27;7.10;;;2.60;;
61785;SDS011;47692;53.714;11.372;2022-07-22T09:13:54;10.18;;;2.88;;
61785;SDS011;47692;53.714;11.372;2022-07-22T09:19:09;11.00;;;2.58;;
61785;SDS011;47692;53.714;11.372;2022-07-22T09:21:36;4.90;;;2.20;;
61785;SDS011;47692;53.714;11.372;2022-07-22T09:24:04;8.32;;;2.70;;
61785;SDS011;47692;53.714;11.372;2022-07-22T09:26:36;8.07;;;2.58;;
61785;SDS011;47692;53.714;11.372;2022-07-22T09:29:03;9.90;;;2.60;;
61785;SDS011;47692;53.714;11.372;2022-07-22T09:31:31;7.00;;;2.63;;
61785;SDS011;47692;53.714;11.372;2022-07-22T09:33:58;7.43;;;2.40;;
61785;SDS011;47692;53.714;11.372;2022-07-22T09:36:25;9.70;;;2.95;;
61785;SDS011;47692;53.714;11.372;2022-07-22T09:38:50;10.70;;;3.03;;
61785;SDS011;47692;53.714;11.372;2022-07-22T09:41:16;9.75;;;2.70;;
61785;SDS011;47692;53.714;11.372;2022-07-22T09:43:42;9.38;;;2.80;;
61785;SDS011;47692;53.714;11.372;2022-07-22T09:46:08;7.90;;;2.58;;
61785;SDS011;47692;53.714;11.372;2022-07-22T09:48:34;8.55;;;2.38;;
61785;SDS011;47692;53.714;11.372;2022-07-22T09:51:01;8.45;;;2.40;;
61785;SDS011;47692;53.714;11.372;2022-07-22T09:53:27;13.07;;;3.15;;
61785;SDS011;47692;53.714;11.372;2022-07-22T09:55:54;6.18;;;1.80;;
61785;SDS011;47692;53.714;11.372;2022-07-22T09:58:20;5.15;;;2.03;;
61785;SDS011;47692;53.714;11.372;2022-07-22T10:00:45;7.57;;;2.25;;
61785;SDS011;47692;53.714;11.372;2022-07-22T10:03:12;5.45;;;2.25;;
61785;SDS011;47692;53.714;11.372;2022-07-22T10:05:42;8.90;;;2.13;;
61785;SDS011;47692;53.714;11.372;2022-07-22T10:08:08;8.02;;;2.08;;
61785;SDS011;47692;53.714;11.372;2022-07-22T10:10:34;8.27;;;2.08;;
61785;SDS011;47692;53.714;11.372;2022-07-22T10:13:03;9.57;;;2.38;;
61785;SDS011;47692;53.714;11.372;2022-07-22T10:15:30;5.53;;;2.17;;
61785;SDS011;47692;53.714;11.372;2022-07-22T10:17:58;10.05;;;2.50;;
61785;SDS011;47692;53.714;11.372;2022-07-22T10:20:27;10.98;;;2.42;;
61785;SDS011;47692;53.714;11.372;2022-07-22T10:22:57;10.27;;;2.10;;
61785;SDS011;47692;53.714;11.372;2022-07-22T10:25:24;7.47;;;2.55;;
61785;SDS011;47692;53.714;11.372;2022-07-22T10:30:33;4.63;;;2.47;;
61785;SDS011;47692;53.714;11.372;2022-07-22T10:33:08;5.13;;;1.83;;
61785;SDS011;47692;53.714;11.372;2022-07-22T10:35:37;11.43;;;2.42;;
61785;SDS011;47692;53.714;11.372;2022-07-22T10:38:18;7.45;;;2.30;;
61785;SDS011;47692;53.714;11.372;2022-07-22T10:43:20;7.63;;;3.15;;
61785;SDS011;47692;53.714;11.372;2022-07-22T10:45:48;8.98;;;3.55;;
61785;SDS011;47692;53.714;11.372;2022-07-22T10:48:15;7.68;;;2.25;;
61785;SDS011;47692;53.714;11.372;2022-07-22T10:50:43;9.55;;;2.20;;
61785;SDS011;47692;53.714;11.372;2022-07-22T10:56:29;7.35;;;2.20;;
61785;SDS011;47692;53.714;11.372;2022-07-22T10:58:41;5.40;;;2.22;;
61785;SDS011;47692;53.714;11.372;2022-07-22T11:01:12;3.77;;;1.93;;
61785;SDS011;47692;53.714;11.372;2022-07-22T11:03:41;8.60;;;1.90;;
61785;SDS011;47692;53.714;11.372;2022-07-22T11:08:41;16.98;;;2.30;;
61785;SDS011;47692;53.714;11.372;2022-07-22T11:11:07;7.45;;;2.05;;
61785;SDS011;47692;53.714;11.372;2022-07-22T11:13:33;8.57;;;1.90;;
61785;SDS011;47692;53.714;11.372;2022-07-22T11:16:15;7.47;;;2.92;;
61785;SDS011;47692;53.714;11.372;2022-07-22T11:21:23;7.40;;;2.50;;
61785;SDS011;47692;53.714;11.372;2022-07-22T11:23:51;7.25;;;1.63;;
61785;SDS011;47692;53.714;11.372;2022-07-22T11:26:20;3.97;;;1.70;;
61785;SDS011;47692;53.714;11.372;2022-07-22T11:28:50;15.13;;;2.72;;
61785;SDS011;47692;53.714;11.372;2022-07-22T11:31:17;7.82;;;2.17;;
61785;SDS011;47692;53.714;11.372;2022-07-22T11:33:44;7.90;;;2.20;;
61785;SDS011;47692;53.714;11.372;2022-07-22T11:36:10;4.68;;;1.63;;
61785;SDS011;47692;53.714;11.372;2022-07-22T11:41:11;9.57;;;2.20;;
61785;SDS011;47692;53.714;11.372;2022-07-22T11:43:37;5.78;;;1.58;;
61785;SDS011;47692;53.714;11.372;2022-07-22T11:46:04;6.15;;;1.42;;
61785;SDS011;47692;53.714;11.372;2022-07-22T11:48:29;4.30;;;1.40;;
61785;SDS011;47692;53.714;11.372;2022-07-22T11:50:59;8.75;;;1.90;;
61785;SDS011;47692;53.714;11.372;2022-07-22T11:53:27;5.32;;;1.98;;
61785;SDS011;47692;53.714;11.372;2022-07-22T11:55:59;3.92;;;1.35;;
61785;SDS011;47692;53.714;11.372;2022-07-22T12:01:01;4.25;;;1.20;;
61785;SDS011;47692;53.714;11.372;2022-07-22T12:03:28;5.50;;;1.30;;
61785;SDS011;47692;53.714;11.372;2022-07-22T12:05:54;7.60;;;2.80;;
61785;SDS011;47692;53.714;11.372;2022-07-22T12:08:20;7.47;;;1.33;;
61785;SDS011;47692;53.714;11.372;2022-07-22T12:10:45;6.22;;;1.58;;
61785;SDS011;47692;53.714;11.372;2022-07-22T12:13:11;6.78;;;1.48;;
61785;SDS011;47692;53.714;11.372;2022-07-22T12:15:38;6.70;;;1.50;;
61785;SDS011;47692;53.714;11.372;2022-07-22T12:20:47;7.43;;;1.65;;
61785;SDS011;47692;53.714;11.372;2022-07-22T12:23:13;7.35;;;1.77;;
61785;SDS011;47692;53.714;11.372;2022-07-22T12:25:58;7.15;;;1.50;;
61785;SDS011;47692;53.714;11.372;2022-07-22T12:28:25;8.00;;;1.60;;
61785;SDS011;47692;53.714;11.372;2022-07-22T12:30:52;5.80;;;1.48;;
61785;SDS011;47692;53.714;11.372;2022-07-22T12:33:19;4.25;;;1.15;;
61785;SDS011;47692;53.714;11.372;2022-07-22T12:35:58;4.32;;;1.60;;
61785;SDS011;47692;53.714;11.372;2022-07-22T12:38:25;7.70;;;1.20;;
61785;SDS011;47692;53.714;11.372;2022-07-22T12:40:51;3.58;;;1.27;;
61785;SDS011;47692;53.714;11.372;2022-07-22T12:43:16;3.95;;;1.17;;
61785;SDS011;47692;53.714;11.372;2022-07-22T12:45:42;2.08;;;1.10;;
61785;SDS011;47692;53.714;11.372;2022-07-22T12:48:08;8.05;;;1.20;;
61785;SDS011;47692;53.714;11.372;2022-07-22T12:53:23;4.82;;;1.65;;
61785;SDS011;47692;53.714;11.372;2022-07-22T12:55:52;4.80;;;1.27;;
61785;SDS011;47692;53.714;11.372;2022-07-22T12:58:22;7.25;;;1.20;;
61785;SDS011;47692;53.714;11.372;2022-07-22T13:00:50;3.72;;;1.35;;
61785;SDS011;47692;53.714;11.372;2022-07-22T13:03:17;5.50;;;1.40;;
61785;SDS011;47692;53.714;11.372;2022-07-22T13:05:47;8.70;;;1.30;;
61785;SDS011;47692;53.714;11.372;2022-07-22T13:08:14;5.80;;;1.75;;
61785;SDS011;47692;53.714;11.372;2022-07-22T13:10:39;5.63;;;1.50;;
61785;SDS011;47692;53.714;11.372;2022-07-22T13:13:05;4.75;;;1.30;;
61785;SDS011;47692;53.714;11.372;2022-07-22T13:15:31;8.25;;;1.60;;
61785;SDS011;47692;53.714;11.372;2022-07-22T13:17:56;3.90;;;1.30;;
61785;SDS011;47692;53.714;11.372;2022-07-22T13:20:22;5.43;;;1.45;;
61785;SDS011;47692;53.714;11.372;2022-07-22T13:22:47;5.78;;;1.40;;
61785;SDS011;47692;53.714;11.372;2022-07-22T13:25:13;3.95;;;1.33;;
61785;SDS011;47692;53.714;11.372;2022-07-22T13:27:38;6.10;;;1.52;;
61785;SDS011;47692;53.714;11.372;2022-07-22T13:30:04;6.68;;;1.50;;
61785;SDS011;47692;53.714;11.372;2022-07-22T13:32:30;5.47;;;1.45;;
61785;SDS011;47692;53.714;11.372;2022-07-22T13:34:56;4.35;;;1.42;;
61785;SDS011;47692;53.714;11.372;2022-07-22T13:37:21;5.93;;;1.33;;
61785;SDS011;47692;53.714;11.372;2022-07-22T13:39:48;4.93;;;2.03;;
61785;SDS011;47692;53.714;11.372;2022-07-22T13:42:14;7.13;;;1.30;;
61785;SDS011;47692;53.714;11.372;2022-07-22T13:44:46;4.70;;;1.25;;
61785;SDS011;47692;53.714;11.372;2022-07-22T13:47:12;5.93;;;1.58;;
61785;SDS011;47692;53.714;11.372;2022-07-22T13:49:38;6.57;;;1.13;;
61785;SDS011;47692;53.714;11.372;2022-07-22T13:52:04;4.88;;;1.45;;
61785;SDS011;47692;53.714;11.372;2022-07-22T13:54:30;6.70;;;1.48;;
61785;SDS011;47692;53.714;11.372;2022-07-22T13:56:56;8.80;;;1.83;;
61785;SDS011;47692;53.714;11.372;2022-07-22T13:59:22;6.90;;;1.48;;
61785;SDS011;47692;53.714;11.372;2022-07-22T14:01:48;5.78;;;1.42;;
61785;SDS011;47692;53.714;11.372;2022-07-22T14:04:13;3.45;;;1.20;;
61785;SDS011;47692;53.714;11.372;2022-07-22T14:06:39;3.17;;;1.13;;
61785;SDS011;47692;53.714;11.372;2022-07-22T14:09:04;2.72;;;1.00;;
61785;SDS011;47692;53.714;11.372;2022-07-22T14:11:29;4.40;;;1.15;;
61785;SDS011;47692;53.714;11.372;2022-07-22T14:13:55;4.43;;;0.93;;
61785;SDS011;47692;53.714;11.372;2022-07-22T14:16:20;8.75;;;1.63;;
61785;SDS011;47692;53.714;11.372;2022-07-22T14:21:33;7.55;;;1.50;;
61785;SDS011;47692;53.714;11.372;2022-07-22T14:24:00;5.53;;;1.45;;
61785;SDS011;47692;53.714;11.372;2022-07-22T14:26:26;4.60;;;1.10;;
61785;SDS011;47692;53.714;11.372;2022-07-22T14:28:52;6.18;;;1.25;;
61785;SDS011;47692;53.714;11.372;2022-07-22T14:31:17;3.40;;;1.10;;
61785;SDS011;47692;53.714;11.372;2022-07-22T14:33:42;4.88;;;1.42;;
61785;SDS011;47692;53.714;11.372;2022-07-22T14:36:08;4.20;;;1.10;;
61785;SDS011;47692;53.714;11.372;2022-07-22T14:38:33;2.42;;;1.00;;
61785;SDS011;47692;53.714;11.372;2022-07-22T14:40:58;2.72;;;1.58;;
61785;SDS011;47692;53.714;11.372;2022-07-22T14:43:24;5.65;;;1.17;;
61785;SDS011;47692;53.714;11.372;2022-07-22T14:45:49;5.00;;;1.00;;
61785;SDS011;47692;53.714;11.372;2022-07-22T14:48:15;3.90;;;1.40;;
61785;SDS011;47692;53.714;11.372;2022-07-22T14:50:40;4.47;;;1.30;;